sensor_id;sensor_type;location;lat;lon;timestamp;P1;durP1;ratioP1;P2;durP2;ratioP2
12155;SDS011;6141;49.092;8.516;2022-12-18T01:39:19;34.90;;;18.93;;
12155;SDS011;6141;49.092;8.516;2022-12-18T01:41:48;38.90;;;18.73;;
12155;SDS011;6141;49.092;8.516;2022-12-18T01:47:33;42.23;;;20.97;;
12155;SDS011;6141;49.092;8.516;2022-12-18T01:50:05;39.87;;;20.40;;
12155;SDS011;6141;49.092;8.516;2022-12-18T01:52:36;39.30;;;19.57;;
12155;SDS011;6141;49.092;8.516;2022-12-18T01:55:07;39.80;;;19.23;;
12155;SDS011;6141;49.092;8.516;2022-12-18T01:57:37;41.20;;;21.50;;
12155;SDS011;6141;49.092;8.516;2022-12-18T02:00:07;44.20;;;20.87;;
12155;SDS011;6141;49.092;8.516;2022-12-18T02:02:41;38.20;;;20.57;;
12155;SDS011;6141;49.092;8.516;2022-12-18T02:05:13;42.83;;;20.97;;
12155;SDS011;6141;49.092;8.516;2022-12-18T02:07:48;42.00;;;19.53;;
12155;SDS011;6141;49.092;8.516;2022-12-18T02:10:28;41.23;;;22.07;;
12155;SDS011;6141;49.092;8.516;2022-12-18T02:13:05;36.47;;;18.97;;
12155;SDS011;6141;49.092;8.516;2022-12-18T02:15:41;40.57;;;21.27;;
12155;SDS011;6141;49.092;8.516;2022-12-18T02:18:18;35.97;;;20.80;;
12155;SDS011;6141;49.092;8.516;2022-12-18T02:20:52;46.47;;;21.30;;
12155;SDS011;6141;49.092;8.516;2022-12-18T02:23:30;41.33;;;22.30;;
12155;SDS011;6141;49.092;8.516;2022-12-18T02:26:16;42.23;;;22.30;;
12155;SDS011;6141;49.092;8.516;2022-12-18T02:28:51;41.97;;;21.83;;
12155;SDS011;6141;49.092;8.516;2022-12-18T02:31:25;37.73;;;20.83;;
12155;SDS011;6141;49.092;8.516;2022-12-18T02:33:59;40.70;;;21.07;;
12155;SDS011;6141;49.092;8.516;2022-12-18T02:36:36;43.50;;;21.40;;
12155;SDS011;6141;49.092;8.516;2022-12-18T02:39:10;44.67;;;22.07;;
12155;SDS011;6141;49.092;8.516;2022-12-18T02:41:52;36.60;;;19.77;;
12155;SDS011;6141;49.092;8.516;2022-12-18T02:44:23;38.10;;;20.23;;
12155;SDS011;6141;49.092;8.516;2022-12-18T02:46:53;39.87;;;20.37;;
12155;SDS011;6141;49.092;8.516;2022-12-18T02:49:24;43.53;;;21.40;;
12155;SDS011;6141;49.092;8.516;2022-12-18T02:52:02;44.93;;;21.93;;
12155;SDS011;6141;49.092;8.516;2022-12-18T02:54:42;39.77;;;20.70;;
12155;SDS011;6141;49.092;8.516;2022-12-18T02:57:24;42.03;;;22.83;;
12155;SDS011;6141;49.092;8.516;2022-12-18T03:00:03;40.77;;;21.60;;
12155;SDS011;6141;49.092;8.516;2022-12-18T03:02:36;39.10;;;21.47;;
12155;SDS011;6141;49.092;8.516;2022-12-18T03:05:12;39.77;;;20.90;;
12155;SDS011;6141;49.092;8.516;2022-12-18T03:07:47;33.87;;;20.50;;
12155;SDS011;6141;49.092;8.516;2022-12-18T03:10:20;36.53;;;20.33;;
12155;SDS011;6141;49.092;8.516;2022-12-18T03:12:56;42.67;;;22.27;;
12155;SDS011;6141;49.092;8.516;2022-12-18T03:15:30;39.27;;;21.37;;
12155;SDS011;6141;49.092;8.516;2022-12-18T03:18:08;41.37;;;21.67;;
12155;SDS011;6141;49.092;8.516;2022-12-18T03:20:41;43.20;;;23.37;;
12155;SDS011;6141;49.092;8.516;2022-12-18T03:23:18;41.87;;;22.03;;
12155;SDS011;6141;49.092;8.516;2022-12-18T03:25:52;42.20;;;23.50;;
12155;SDS011;6141;49.092;8.516;2022-12-18T03:28:28;36.97;;;22.53;;
12155;SDS011;6141;49.092;8.516;2022-12-18T03:31:01;39.90;;;20.90;;
12155;SDS011;6141;49.092;8.516;2022-12-18T03:33:34;37.67;;;21.20;;
12155;SDS011;6141;49.092;8.516;2022-12-18T03:36:07;37.20;;;21.47;;
12155;SDS011;6141;49.092;8.516;2022-12-18T03:38:37;39.23;;;20.37;;
12155;SDS011;6141;49.092;8.516;2022-12-18T03:41:09;41.10;;;21.77;;
12155;SDS011;6141;49.092;8.516;2022-12-18T03:44:09;40.23;;;20.90;;
12155;SDS011;6141;49.092;8.516;2022-12-18T03:46:45;38.23;;;21.63;;
12155;SDS011;6141;49.092;8.516;2022-12-18T03:49:21;42.67;;;21.63;;
12155;SDS011;6141;49.092;8.516;2022-12-18T03:51:57;39.93;;;22.40;;
12155;SDS011;6141;49.092;8.516;2022-12-18T03:54:31;38.10;;;21.13;;
12155;SDS011;6141;49.092;8.516;2022-12-18T03:57:09;39.13;;;20.90;;
12155;SDS011;6141;49.092;8.516;2022-12-18T03:59:44;40.17;;;21.70;;
12155;SDS011;6141;49.092;8.516;2022-12-18T04:02:16;36.80;;;20.50;;
12155;SDS011;6141;49.092;8.516;2022-12-18T04:04:46;38.43;;;21.03;;
12155;SDS011;6141;49.092;8.516;2022-12-18T04:07:16;42.73;;;22.40;;
12155;SDS011;6141;49.092;8.516;2022-12-18T04:09:46;40.50;;;22.77;;
12155;SDS011;6141;49.092;8.516;2022-12-18T04:12:17;36.10;;;20.50;;
12155;SDS011;6141;49.092;8.516;2022-12-18T04:14:48;33.17;;;18.53;;
12155;SDS011;6141;49.092;8.516;2022-12-18T04:17:17;34.70;;;19.70;;
12155;SDS011;6141;49.092;8.516;2022-12-18T04:19:46;38.33;;;21.70;;
12155;SDS011;6141;49.092;8.516;2022-12-18T04:22:15;39.33;;;22.57;;
12155;SDS011;6141;49.092;8.516;2022-12-18T04:24:47;38.60;;;20.47;;
12155;SDS011;6141;49.092;8.516;2022-12-18T04:27:25;40.70;;;21.73;;
12155;SDS011;6141;49.092;8.516;2022-12-18T04:29:55;43.47;;;22.13;;
12155;SDS011;6141;49.092;8.516;2022-12-18T04:32:23;34.93;;;19.20;;
12155;SDS011;6141;49.092;8.516;2022-12-18T04:34:51;39.03;;;21.33;;
12155;SDS011;6141;49.092;8.516;2022-12-18T04:37:20;38.60;;;21.50;;
12155;SDS011;6141;49.092;8.516;2022-12-18T04:39:49;40.37;;;21.33;;
12155;SDS011;6141;49.092;8.516;2022-12-18T04:42:25;35.07;;;19.67;;
12155;SDS011;6141;49.092;8.516;2022-12-18T04:44:54;35.03;;;19.87;;
12155;SDS011;6141;49.092;8.516;2022-12-18T04:47:22;38.70;;;21.07;;
12155;SDS011;6141;49.092;8.516;2022-12-18T04:49:51;36.97;;;21.03;;
12155;SDS011;6141;49.092;8.516;2022-12-18T04:52:19;36.50;;;19.27;;
12155;SDS011;6141;49.092;8.516;2022-12-18T04:54:50;37.17;;;20.27;;
12155;SDS011;6141;49.092;8.516;2022-12-18T04:57:18;38.17;;;19.80;;
12155;SDS011;6141;49.092;8.516;2022-12-18T04:59:47;39.33;;;19.37;;
12155;SDS011;6141;49.092;8.516;2022-12-18T05:02:16;35.53;;;19.60;;
12155;SDS011;6141;49.092;8.516;2022-12-18T05:04:45;38.00;;;21.13;;
12155;SDS011;6141;49.092;8.516;2022-12-18T05:07:13;35.90;;;19.40;;
12155;SDS011;6141;49.092;8.516;2022-12-18T05:09:41;36.87;;;20.50;;
12155;SDS011;6141;49.092;8.516;2022-12-18T05:12:10;35.93;;;19.37;;
12155;SDS011;6141;49.092;8.516;2022-12-18T05:14:38;37.60;;;19.10;;
12155;SDS011;6141;49.092;8.516;2022-12-18T05:17:07;40.07;;;20.17;;
12155;SDS011;6141;49.092;8.516;2022-12-18T05:19:37;35.33;;;19.13;;
12155;SDS011;6141;49.092;8.516;2022-12-18T05:22:05;45.47;;;21.07;;
12155;SDS011;6141;49.092;8.516;2022-12-18T05:24:34;41.67;;;19.20;;
12155;SDS011;6141;49.092;8.516;2022-12-18T05:27:03;41.60;;;19.80;;
12155;SDS011;6141;49.092;8.516;2022-12-18T05:29:31;34.63;;;16.87;;
12155;SDS011;6141;49.092;8.516;2022-12-18T05:31:59;34.20;;;18.37;;
12155;SDS011;6141;49.092;8.516;2022-12-18T05:34:27;35.77;;;17.70;;
12155;SDS011;6141;49.092;8.516;2022-12-18T05:36:57;33.53;;;17.53;;
12155;SDS011;6141;49.092;8.516;2022-12-18T05:39:25;45.13;;;18.83;;
12155;SDS011;6141;49.092;8.516;2022-12-18T05:41:53;37.43;;;18.83;;
12155;SDS011;6141;49.092;8.516;2022-12-18T05:44:21;33.17;;;15.30;;
12155;SDS011;6141;49.092;8.516;2022-12-18T05:46:50;40.90;;;15.60;;
12155;SDS011;6141;49.092;8.516;2022-12-18T05:49:18;35.30;;;17.03;;
12155;SDS011;6141;49.092;8.516;2022-12-18T05:51:46;31.83;;;15.33;;
12155;SDS011;6141;49.092;8.516;2022-12-18T05:54:16;35.13;;;15.23;;
12155;SDS011;6141;49.092;8.516;2022-12-18T05:56:44;30.13;;;14.27;;
12155;SDS011;6141;49.092;8.516;2022-12-18T05:59:14;29.13;;;14.27;;
12155;SDS011;6141;49.092;8.516;2022-12-18T06:01:42;34.53;;;14.60;;
12155;SDS011;6141;49.092;8.516;2022-12-18T06:04:11;34.37;;;15.50;;
12155;SDS011;6141;49.092;8.516;2022-12-18T06:06:39;39.17;;;15.93;;
12155;SDS011;6141;49.092;8.516;2022-12-18T06:09:07;33.53;;;13.97;;
12155;SDS011;6141;49.092;8.516;2022-12-18T06:11:38;35.20;;;14.77;;
12155;SDS011;6141;49.092;8.516;2022-12-18T06:14:06;21.93;;;11.77;;
12155;SDS011;6141;49.092;8.516;2022-12-18T06:16:35;28.10;;;14.03;;
12155;SDS011;6141;49.092;8.516;2022-12-18T06:19:04;26.27;;;12.27;;
12155;SDS011;6141;49.092;8.516;2022-12-18T06:21:33;28.13;;;14.23;;
12155;SDS011;6141;49.092;8.516;2022-12-18T06:24:01;29.80;;;14.33;;
12155;SDS011;6141;49.092;8.516;2022-12-18T06:26:30;30.77;;;14.03;;
12155;SDS011;6141;49.092;8.516;2022-12-18T06:28:59;34.17;;;13.77;;
12155;SDS011;6141;49.092;8.516;2022-12-18T06:31:27;33.20;;;15.33;;
12155;SDS011;6141;49.092;8.516;2022-12-18T06:33:56;25.97;;;13.87;;
12155;SDS011;6141;49.092;8.516;2022-12-18T06:36:24;30.63;;;13.63;;
12155;SDS011;6141;49.092;8.516;2022-12-18T06:38:52;32.27;;;15.57;;
12155;SDS011;6141;49.092;8.516;2022-12-18T06:41:20;26.27;;;13.33;;
12155;SDS011;6141;49.092;8.516;2022-12-18T06:43:49;27.93;;;15.10;;
12155;SDS011;6141;49.092;8.516;2022-12-18T06:46:24;29.87;;;15.47;;
12155;SDS011;6141;49.092;8.516;2022-12-18T06:48:53;36.57;;;16.43;;
12155;SDS011;6141;49.092;8.516;2022-12-18T06:51:22;35.80;;;14.80;;
12155;SDS011;6141;49.092;8.516;2022-12-18T06:53:51;33.27;;;15.97;;
12155;SDS011;6141;49.092;8.516;2022-12-18T06:56:19;39.07;;;17.97;;
12155;SDS011;6141;49.092;8.516;2022-12-18T06:58:47;37.43;;;15.93;;
12155;SDS011;6141;49.092;8.516;2022-12-18T07:01:16;34.40;;;16.93;;
12155;SDS011;6141;49.092;8.516;2022-12-18T07:03:45;43.07;;;19.17;;
12155;SDS011;6141;49.092;8.516;2022-12-18T07:06:15;31.90;;;15.47;;
12155;SDS011;6141;49.092;8.516;2022-12-18T07:08:44;46.77;;;17.57;;
12155;SDS011;6141;49.092;8.516;2022-12-18T07:11:14;34.53;;;15.87;;
12155;SDS011;6141;49.092;8.516;2022-12-18T07:13:42;21.67;;;12.47;;
12155;SDS011;6141;49.092;8.516;2022-12-18T07:16:12;39.73;;;17.67;;
12155;SDS011;6141;49.092;8.516;2022-12-18T07:18:51;35.13;;;16.33;;
12155;SDS011;6141;49.092;8.516;2022-12-18T07:21:19;34.93;;;16.57;;
12155;SDS011;6141;49.092;8.516;2022-12-18T07:23:48;39.70;;;17.47;;
12155;SDS011;6141;49.092;8.516;2022-12-18T07:26:16;40.90;;;17.17;;
12155;SDS011;6141;49.092;8.516;2022-12-18T07:28:45;37.27;;;15.73;;
12155;SDS011;6141;49.092;8.516;2022-12-18T07:31:15;40.40;;;17.17;;
12155;SDS011;6141;49.092;8.516;2022-12-18T07:33:47;40.10;;;16.00;;
12155;SDS011;6141;49.092;8.516;2022-12-18T07:36:17;43.77;;;18.50;;
12155;SDS011;6141;49.092;8.516;2022-12-18T07:38:46;37.17;;;16.23;;
12155;SDS011;6141;49.092;8.516;2022-12-18T07:41:15;42.37;;;18.10;;
12155;SDS011;6141;49.092;8.516;2022-12-18T07:43:45;36.23;;;16.90;;
12155;SDS011;6141;49.092;8.516;2022-12-18T07:46:13;43.07;;;18.13;;
12155;SDS011;6141;49.092;8.516;2022-12-18T07:48:42;38.83;;;18.63;;
12155;SDS011;6141;49.092;8.516;2022-12-18T07:51:15;40.03;;;17.30;;
12155;SDS011;6141;49.092;8.516;2022-12-18T07:53:46;37.57;;;18.30;;
12155;SDS011;6141;49.092;8.516;2022-12-18T07:56:18;36.57;;;17.30;;
12155;SDS011;6141;49.092;8.516;2022-12-18T07:58:56;33.10;;;14.83;;
12155;SDS011;6141;49.092;8.516;2022-12-18T08:01:24;33.63;;;16.83;;
12155;SDS011;6141;49.092;8.516;2022-12-18T08:03:53;36.50;;;17.93;;
12155;SDS011;6141;49.092;8.516;2022-12-18T08:06:23;34.23;;;15.97;;
12155;SDS011;6141;49.092;8.516;2022-12-18T08:08:52;39.30;;;17.93;;
12155;SDS011;6141;49.092;8.516;2022-12-18T08:11:21;29.50;;;14.93;;
12155;SDS011;6141;49.092;8.516;2022-12-18T08:13:50;31.97;;;14.97;;
12155;SDS011;6141;49.092;8.516;2022-12-18T08:16:19;31.33;;;16.17;;
12155;SDS011;6141;49.092;8.516;2022-12-18T08:18:48;37.00;;;16.67;;
12155;SDS011;6141;49.092;8.516;2022-12-18T08:21:18;40.77;;;17.70;;
12155;SDS011;6141;49.092;8.516;2022-12-18T08:23:50;35.80;;;17.37;;
12155;SDS011;6141;49.092;8.516;2022-12-18T08:26:20;36.33;;;17.73;;
12155;SDS011;6141;49.092;8.516;2022-12-18T08:28:49;44.77;;;19.43;;
12155;SDS011;6141;49.092;8.516;2022-12-18T08:31:18;41.73;;;18.33;;
12155;SDS011;6141;49.092;8.516;2022-12-18T08:33:49;35.40;;;17.33;;
12155;SDS011;6141;49.092;8.516;2022-12-18T08:36:17;45.93;;;18.47;;
12155;SDS011;6141;49.092;8.516;2022-12-18T08:38:46;35.20;;;17.57;;
12155;SDS011;6141;49.092;8.516;2022-12-18T08:41:17;34.67;;;18.00;;
12155;SDS011;6141;49.092;8.516;2022-12-18T08:43:46;42.50;;;18.73;;
12155;SDS011;6141;49.092;8.516;2022-12-18T08:46:32;45.17;;;19.73;;
12155;SDS011;6141;49.092;8.516;2022-12-18T08:49:02;39.97;;;18.73;;
12155;SDS011;6141;49.092;8.516;2022-12-18T08:51:31;36.87;;;18.07;;
12155;SDS011;6141;49.092;8.516;2022-12-18T08:53:59;40.93;;;17.70;;
12155;SDS011;6141;49.092;8.516;2022-12-18T08:56:31;41.97;;;20.53;;
12155;SDS011;6141;49.092;8.516;2022-12-18T08:59:00;37.27;;;18.43;;
12155;SDS011;6141;49.092;8.516;2022-12-18T09:01:29;42.60;;;17.90;;
12155;SDS011;6141;49.092;8.516;2022-12-18T09:03:59;38.80;;;19.47;;
12155;SDS011;6141;49.092;8.516;2022-12-18T09:06:27;45.90;;;19.23;;
12155;SDS011;6141;49.092;8.516;2022-12-18T09:08:56;41.17;;;19.77;;
12155;SDS011;6141;49.092;8.516;2022-12-18T09:11:26;43.03;;;20.30;;
12155;SDS011;6141;49.092;8.516;2022-12-18T09:13:57;43.10;;;20.77;;
12155;SDS011;6141;49.092;8.516;2022-12-18T09:16:28;42.17;;;19.43;;
12155;SDS011;6141;49.092;8.516;2022-12-18T09:18:58;39.37;;;20.23;;
12155;SDS011;6141;49.092;8.516;2022-12-18T09:21:27;41.33;;;19.83;;
12155;SDS011;6141;49.092;8.516;2022-12-18T09:24:00;40.17;;;20.43;;
12155;SDS011;6141;49.092;8.516;2022-12-18T09:26:29;42.60;;;21.63;;
12155;SDS011;6141;49.092;8.516;2022-12-18T09:28:58;44.07;;;21.80;;
12155;SDS011;6141;49.092;8.516;2022-12-18T09:31:26;39.47;;;20.90;;
12155;SDS011;6141;49.092;8.516;2022-12-18T09:33:55;45.83;;;21.50;;
12155;SDS011;6141;49.092;8.516;2022-12-18T09:36:23;66.63;;;31.33;;
12155;SDS011;6141;49.092;8.516;2022-12-18T09:38:52;52.47;;;25.70;;
12155;SDS011;6141;49.092;8.516;2022-12-18T09:41:30;42.13;;;21.47;;
12155;SDS011;6141;49.092;8.516;2022-12-18T09:44:16;44.03;;;20.67;;
12155;SDS011;6141;49.092;8.516;2022-12-18T09:46:52;59.60;;;30.90;;
12155;SDS011;6141;49.092;8.516;2022-12-18T09:49:25;46.80;;;22.37;;
12155;SDS011;6141;49.092;8.516;2022-12-18T09:51:57;42.07;;;21.43;;
12155;SDS011;6141;49.092;8.516;2022-12-18T09:54:31;46.53;;;22.33;;
12155;SDS011;6141;49.092;8.516;2022-12-18T09:57:03;36.87;;;19.97;;
12155;SDS011;6141;49.092;8.516;2022-12-18T09:59:33;36.63;;;19.10;;
12155;SDS011;6141;49.092;8.516;2022-12-18T10:02:11;42.60;;;18.67;;
12155;SDS011;6141;49.092;8.516;2022-12-18T10:04:42;42.53;;;21.87;;
12155;SDS011;6141;49.092;8.516;2022-12-18T10:07:15;40.23;;;20.70;;
12155;SDS011;6141;49.092;8.516;2022-12-18T10:09:51;48.67;;;22.67;;
12155;SDS011;6141;49.092;8.516;2022-12-18T10:12:29;38.80;;;20.57;;
12155;SDS011;6141;49.092;8.516;2022-12-18T10:15:06;41.53;;;20.77;;
12155;SDS011;6141;49.092;8.516;2022-12-18T10:17:41;41.70;;;20.57;;
12155;SDS011;6141;49.092;8.516;2022-12-18T10:20:17;38.33;;;19.63;;
12155;SDS011;6141;49.092;8.516;2022-12-18T10:22:53;40.77;;;21.07;;
12155;SDS011;6141;49.092;8.516;2022-12-18T10:25:30;41.60;;;20.97;;
12155;SDS011;6141;49.092;8.516;2022-12-18T10:28:21;38.93;;;20.63;;
12155;SDS011;6141;49.092;8.516;2022-12-18T10:31:14;38.37;;;20.60;;
12155;SDS011;6141;49.092;8.516;2022-12-18T10:34:08;48.77;;;22.47;;
12155;SDS011;6141;49.092;8.516;2022-12-18T10:36:58;40.47;;;22.30;;
12155;SDS011;6141;49.092;8.516;2022-12-18T10:40:04;37.97;;;20.70;;
12155;SDS011;6141;49.092;8.516;2022-12-18T10:43:10;40.37;;;20.27;;
12155;SDS011;6141;49.092;8.516;2022-12-18T10:46:15;41.27;;;20.20;;
12155;SDS011;6141;49.092;8.516;2022-12-18T10:49:17;38.10;;;19.73;;
12155;SDS011;6141;49.092;8.516;2022-12-18T10:52:12;36.40;;;20.27;;
12155;SDS011;6141;49.092;8.516;2022-12-18T10:55:03;39.30;;;20.10;;
12155;SDS011;6141;49.092;8.516;2022-12-18T10:57:53;39.33;;;21.23;;
12155;SDS011;6141;49.092;8.516;2022-12-18T11:00:41;39.20;;;21.23;;
12155;SDS011;6141;49.092;8.516;2022-12-18T11:03:32;38.27;;;19.90;;
12155;SDS011;6141;49.092;8.516;2022-12-18T11:06:24;40.63;;;21.00;;
12155;SDS011;6141;49.092;8.516;2022-12-18T11:09:19;40.10;;;20.43;;
12155;SDS011;6141;49.092;8.516;2022-12-18T11:12:15;39.87;;;21.57;;
12155;SDS011;6141;49.092;8.516;2022-12-18T11:15:05;36.50;;;21.70;;
12155;SDS011;6141;49.092;8.516;2022-12-18T11:18:03;44.80;;;22.70;;
12155;SDS011;6141;49.092;8.516;2022-12-18T11:20:54;39.77;;;21.83;;
12155;SDS011;6141;49.092;8.516;2022-12-18T11:23:46;38.37;;;20.80;;
12155;SDS011;6141;49.092;8.516;2022-12-18T11:26:37;38.43;;;20.73;;
12155;SDS011;6141;49.092;8.516;2022-12-18T11:29:28;38.93;;;21.60;;
12155;SDS011;6141;49.092;8.516;2022-12-18T11:32:31;37.17;;;21.10;;
12155;SDS011;6141;49.092;8.516;2022-12-18T11:35:25;37.83;;;21.53;;
12155;SDS011;6141;49.092;8.516;2022-12-18T11:38:29;38.67;;;22.37;;
12155;SDS011;6141;49.092;8.516;2022-12-18T11:41:23;37.63;;;22.47;;
12155;SDS011;6141;49.092;8.516;2022-12-18T11:44:38;36.70;;;21.70;;
12155;SDS011;6141;49.092;8.516;2022-12-18T11:47:36;40.43;;;22.70;;
12155;SDS011;6141;49.092;8.516;2022-12-18T11:50:30;45.20;;;24.23;;
12155;SDS011;6141;49.092;8.516;2022-12-18T11:53:25;43.10;;;24.20;;
12155;SDS011;6141;49.092;8.516;2022-12-18T11:56:25;40.80;;;22.93;;
12155;SDS011;6141;49.092;8.516;2022-12-18T11:59:19;40.80;;;23.00;;
12155;SDS011;6141;49.092;8.516;2022-12-18T12:02:24;38.53;;;23.40;;
12155;SDS011;6141;49.092;8.516;2022-12-18T12:05:26;38.97;;;21.63;;
12155;SDS011;6141;49.092;8.516;2022-12-18T12:08:27;43.60;;;23.23;;
12155;SDS011;6141;49.092;8.516;2022-12-18T12:11:30;43.80;;;23.50;;
12155;SDS011;6141;49.092;8.516;2022-12-18T12:14:29;31.03;;;18.67;;
12155;SDS011;6141;49.092;8.516;2022-12-18T12:17:31;39.33;;;23.17;;
12155;SDS011;6141;49.092;8.516;2022-12-18T12:20:26;42.07;;;23.67;;
12155;SDS011;6141;49.092;8.516;2022-12-18T12:23:27;40.20;;;23.00;;
12155;SDS011;6141;49.092;8.516;2022-12-18T12:26:24;45.57;;;24.47;;
12155;SDS011;6141;49.092;8.516;2022-12-18T12:29:25;41.53;;;23.83;;
12155;SDS011;6141;49.092;8.516;2022-12-18T12:32:26;41.83;;;22.93;;
12155;SDS011;6141;49.092;8.516;2022-12-18T12:35:29;44.83;;;24.83;;
12155;SDS011;6141;49.092;8.516;2022-12-18T12:38:28;45.07;;;25.40;;
12155;SDS011;6141;49.092;8.516;2022-12-18T12:41:23;46.07;;;25.03;;
12155;SDS011;6141;49.092;8.516;2022-12-18T12:44:33;49.63;;;26.27;;
12155;SDS011;6141;49.092;8.516;2022-12-18T12:47:28;53.00;;;30.27;;
12155;SDS011;6141;49.092;8.516;2022-12-18T12:50:21;61.00;;;36.50;;
12155;SDS011;6141;49.092;8.516;2022-12-18T12:53:14;45.83;;;26.60;;
12155;SDS011;6141;49.092;8.516;2022-12-18T12:56:09;48.17;;;30.07;;
12155;SDS011;6141;49.092;8.516;2022-12-18T12:59:04;46.50;;;28.63;;
12155;SDS011;6141;49.092;8.516;2022-12-18T13:02:05;50.87;;;31.60;;
12155;SDS011;6141;49.092;8.516;2022-12-18T13:05:04;42.70;;;26.53;;
12155;SDS011;6141;49.092;8.516;2022-12-18T13:08:03;47.37;;;27.13;;
12155;SDS011;6141;49.092;8.516;2022-12-18T13:10:54;47.53;;;29.03;;
12155;SDS011;6141;49.092;8.516;2022-12-18T13:14:10;46.70;;;27.03;;
12155;SDS011;6141;49.092;8.516;2022-12-18T13:17:16;47.17;;;28.10;;
12155;SDS011;6141;49.092;8.516;2022-12-18T13:20:16;45.30;;;25.50;;
12155;SDS011;6141;49.092;8.516;2022-12-18T13:23:19;45.03;;;26.53;;
12155;SDS011;6141;49.092;8.516;2022-12-18T13:26:29;45.83;;;25.60;;
12155;SDS011;6141;49.092;8.516;2022-12-18T13:29:40;42.77;;;25.87;;
12155;SDS011;6141;49.092;8.516;2022-12-18T13:32:32;42.17;;;25.10;;
12155;SDS011;6141;49.092;8.516;2022-12-18T13:35:37;42.30;;;25.27;;
12155;SDS011;6141;49.092;8.516;2022-12-18T13:38:32;44.07;;;25.40;;
12155;SDS011;6141;49.092;8.516;2022-12-18T13:41:23;42.53;;;25.17;;
12155;SDS011;6141;49.092;8.516;2022-12-18T13:44:20;44.67;;;26.60;;
12155;SDS011;6141;49.092;8.516;2022-12-18T13:47:27;41.73;;;26.03;;
12155;SDS011;6141;49.092;8.516;2022-12-18T13:50:22;47.53;;;27.33;;
12155;SDS011;6141;49.092;8.516;2022-12-18T13:53:22;48.67;;;28.33;;
12155;SDS011;6141;49.092;8.516;2022-12-18T13:56:15;47.10;;;28.13;;
12155;SDS011;6141;49.092;8.516;2022-12-18T13:59:05;45.63;;;27.80;;
12155;SDS011;6141;49.092;8.516;2022-12-18T14:02:13;49.73;;;29.63;;
12155;SDS011;6141;49.092;8.516;2022-12-18T14:05:20;49.47;;;30.40;;
12155;SDS011;6141;49.092;8.516;2022-12-18T14:08:14;46.27;;;29.83;;
12155;SDS011;6141;49.092;8.516;2022-12-18T14:11:07;49.90;;;33.63;;
12155;SDS011;6141;49.092;8.516;2022-12-18T14:14:28;56.00;;;34.90;;
12155;SDS011;6141;49.092;8.516;2022-12-18T14:17:20;58.77;;;37.40;;
12155;SDS011;6141;49.092;8.516;2022-12-18T14:20:15;55.17;;;32.93;;
12155;SDS011;6141;49.092;8.516;2022-12-18T14:23:31;55.97;;;39.07;;
12155;SDS011;6141;49.092;8.516;2022-12-18T14:26:30;57.40;;;38.20;;
12155;SDS011;6141;49.092;8.516;2022-12-18T14:29:23;57.37;;;35.30;;
12155;SDS011;6141;49.092;8.516;2022-12-18T14:40:21;55.10;;;35.57;;
12155;SDS011;6141;49.092;8.516;2022-12-18T14:47:25;50.70;;;33.57;;
12155;SDS011;6141;49.092;8.516;2022-12-18T15:53:08;56.07;;;36.77;;
12155;SDS011;6141;49.092;8.516;2022-12-18T15:56:10;81.93;;;52.77;;
12155;SDS011;6141;49.092;8.516;2022-12-18T15:59:33;62.27;;;39.90;;
12155;SDS011;6141;49.092;8.516;2022-12-18T16:02:27;58.03;;;36.67;;
12155;SDS011;6141;49.092;8.516;2022-12-18T16:51:17;50.87;;;31.17;;
12155;SDS011;6141;49.092;8.516;2022-12-18T16:53:48;46.73;;;29.40;;
12155;SDS011;6141;49.092;8.516;2022-12-18T16:56:23;46.20;;;29.60;;
12155;SDS011;6141;49.092;8.516;2022-12-18T16:59:01;46.57;;;29.20;;
12155;SDS011;6141;49.092;8.516;2022-12-18T17:02:12;42.60;;;27.87;;
12155;SDS011;6141;49.092;8.516;2022-12-18T17:06:04;46.03;;;29.80;;
12155;SDS011;6141;49.092;8.516;2022-12-18T17:25:04;50.07;;;27.90;;
12155;SDS011;6141;49.092;8.516;2022-12-18T17:27:49;44.43;;;27.23;;
12155;SDS011;6141;49.092;8.516;2022-12-18T17:30:18;47.47;;;28.13;;
12155;SDS011;6141;49.092;8.516;2022-12-18T17:32:47;46.53;;;27.53;;
12155;SDS011;6141;49.092;8.516;2022-12-18T17:35:19;48.43;;;26.77;;
12155;SDS011;6141;49.092;8.516;2022-12-18T17:37:47;50.47;;;28.37;;
12155;SDS011;6141;49.092;8.516;2022-12-18T17:40:28;45.23;;;28.07;;
12155;SDS011;6141;49.092;8.516;2022-12-18T17:42:59;50.97;;;29.40;;
12155;SDS011;6141;49.092;8.516;2022-12-18T17:45:33;48.37;;;28.73;;
12155;SDS011;6141;49.092;8.516;2022-12-18T17:48:04;51.23;;;29.47;;
12155;SDS011;6141;49.092;8.516;2022-12-18T17:50:35;50.13;;;28.47;;
12155;SDS011;6141;49.092;8.516;2022-12-18T17:53:06;45.27;;;27.07;;
12155;SDS011;6141;49.092;8.516;2022-12-18T18:15:26;46.90;;;29.73;;
12155;SDS011;6141;49.092;8.516;2022-12-18T18:17:56;48.77;;;29.90;;
12155;SDS011;6141;49.092;8.516;2022-12-18T18:49:26;51.10;;;30.10;;
12155;SDS011;6141;49.092;8.516;2022-12-18T18:52:35;54.67;;;30.87;;
12155;SDS011;6141;49.092;8.516;2022-12-18T18:55:24;48.27;;;28.80;;
12155;SDS011;6141;49.092;8.516;2022-12-18T18:57:54;56.27;;;31.20;;
12155;SDS011;6141;49.092;8.516;2022-12-18T19:20:56;54.40;;;33.27;;
12155;SDS011;6141;49.092;8.516;2022-12-18T19:26:07;61.00;;;35.77;;
12155;SDS011;6141;49.092;8.516;2022-12-18T19:29:01;60.73;;;35.03;;
12155;SDS011;6141;49.092;8.516;2022-12-18T19:31:34;59.33;;;37.73;;
12155;SDS011;6141;49.092;8.516;2022-12-18T19:34:12;57.23;;;36.07;;
12155;SDS011;6141;49.092;8.516;2022-12-18T19:36:43;55.53;;;34.93;;
12155;SDS011;6141;49.092;8.516;2022-12-18T19:39:13;57.63;;;34.00;;
12155;SDS011;6141;49.092;8.516;2022-12-18T19:41:45;58.73;;;35.57;;
12155;SDS011;6141;49.092;8.516;2022-12-18T19:44:15;60.33;;;37.77;;
12155;SDS011;6141;49.092;8.516;2022-12-18T19:46:48;61.43;;;36.73;;
12155;SDS011;6141;49.092;8.516;2022-12-18T19:50:47;61.23;;;36.27;;
12155;SDS011;6141;49.092;8.516;2022-12-18T19:56:57;56.83;;;37.00;;
12155;SDS011;6141;49.092;8.516;2022-12-18T20:01:44;58.20;;;35.77;;
12155;SDS011;6141;49.092;8.516;2022-12-18T20:08:13;59.73;;;34.97;;
12155;SDS011;6141;49.092;8.516;2022-12-18T20:10:54;56.30;;;36.37;;
12155;SDS011;6141;49.092;8.516;2022-12-18T20:26:43;55.90;;;36.57;;
12155;SDS011;6141;49.092;8.516;2022-12-18T20:29:16;63.07;;;37.10;;
12155;SDS011;6141;49.092;8.516;2022-12-18T20:31:45;61.97;;;37.50;;
12155;SDS011;6141;49.092;8.516;2022-12-18T20:35:16;62.73;;;39.03;;
12155;SDS011;6141;49.092;8.516;2022-12-18T21:31:00;57.60;;;34.13;;
12155;SDS011;6141;49.092;8.516;2022-12-18T21:33:56;57.27;;;35.00;;
12155;SDS011;6141;49.092;8.516;2022-12-18T21:41:18;56.87;;;34.87;;
12155;SDS011;6141;49.092;8.516;2022-12-18T21:44:27;58.20;;;35.27;;
12155;SDS011;6141;49.092;8.516;2022-12-18T21:47:12;57.03;;;34.37;;
12155;SDS011;6141;49.092;8.516;2022-12-18T21:49:52;66.00;;;41.70;;
12155;SDS011;6141;49.092;8.516;2022-12-18T21:52:21;58.67;;;38.10;;
12155;SDS011;6141;49.092;8.516;2022-12-18T21:54:58;62.20;;;38.30;;
12155;SDS011;6141;49.092;8.516;2022-12-18T22:10:43;65.50;;;42.57;;
12155;SDS011;6141;49.092;8.516;2022-12-18T22:13:18;65.27;;;41.67;;
12155;SDS011;6141;49.092;8.516;2022-12-18T22:15:53;64.37;;;40.87;;
12155;SDS011;6141;49.092;8.516;2022-12-18T22:18:28;64.90;;;42.13;;
12155;SDS011;6141;49.092;8.516;2022-12-18T22:21:02;61.37;;;39.63;;
12155;SDS011;6141;49.092;8.516;2022-12-18T22:23:32;61.70;;;39.13;;
12155;SDS011;6141;49.092;8.516;2022-12-18T22:26:51;61.27;;;39.57;;
12155;SDS011;6141;49.092;8.516;2022-12-18T22:29:28;62.67;;;40.97;;
12155;SDS011;6141;49.092;8.516;2022-12-18T22:32:16;63.70;;;40.40;;